Thunder radar more information blitzortung!


Radar de pluja more information rain snow radar


Visita la nostra xarxa de llocs de meteo:

Template documentation
and downloads

And another site



No particular awareness of the weather is required.    There are no Weather-warnings

Pagina Historial Weather Underground text

Diari Resum May 11, 2016 Unitats:  Mètric    Imperial   Tant
« Previous Dia
SegĂźent Dia »
Diari Setmana Mensual Anual Personalitzada
  Maxima: Minima: Media:
Temperatura: 22.8 °C 10.0 °C 15.9 °C
Punt de rosada: 12.6 °C 6.8 °C 9.7 °C
Humitat: 95 % 41 % 69 %
Wind Speed: 28.6 km/h 0.0 km/h 7.2 km/h
RĂ fegues de vent: 28.6 km/h - -
Vent:- - SW
Pression baro: 1009.0 hPa 1002.9 hPa -
Precipitacions: 1.0 mm    
Historical Graphs
 
 
Dades de taula per May 11, 2016
Temps Temperatura Punt de rosada Pression baro Vent Wind Speed RĂ fegues de vent Humitat Rainfall Rate (Hourly)
00:04 12.8 °C 11.6 °C 1009.0 hPa Calm     92 % 0.0 mm
00:05 10.5 °C 9.4 °C 1007.0 hPa NW 1.6 km/h 3.2 km/h 93 % 0.0 mm
00:15 10.5 °C 9.4 °C 1006.0 hPa Calm   1.6 km/h 93 % 0.0 mm
00:25 10.4 °C 9.3 °C 1006.0 hPa Calm   3.2 km/h 93 % 0.0 mm
00:35 10.3 °C 9.1 °C 1006.0 hPa Calm   4.8 km/h 92 % 0.0 mm
00:45 10.4 °C 9.3 °C 1006.0 hPa Calm     93 % 0.0 mm
00:55 10.1 °C 9.0 °C 1006.0 hPa WSW 1.6 km/h 4.8 km/h 93 % 0.0 mm
01:05 10.2 °C 9.1 °C 1006.0 hPa Calm   4.8 km/h 93 % 0.0 mm
01:15 10.1 °C 9.0 °C 1006.0 hPa Calm   1.6 km/h 93 % 0.0 mm
01:25 10.0 °C 8.9 °C 1007.0 hPa WSW 1.6 km/h 4.8 km/h 93 % 0.0 mm
01:35 10.0 °C 8.9 °C 1007.0 hPa WSW 1.6 km/h 3.2 km/h 93 % 0.0 mm
01:45 10.0 °C 8.9 °C 1007.0 hPa Calm   1.6 km/h 93 % 0.0 mm
01:55 10.1 °C 9.0 °C 1007.0 hPa Calm     93 % 0.0 mm
02:05 10.2 °C 9.3 °C 1007.0 hPa NNW 1.6 km/h 3.2 km/h 94 % 0.0 mm
02:15 10.1 °C 9.2 °C 1007.0 hPa Calm   4.8 km/h 94 % 0.0 mm
02:25 10.4 °C 9.3 °C 1007.0 hPa NE 1.6 km/h 3.2 km/h 93 % 0.0 mm
02:35 10.5 °C 9.4 °C 1007.0 hPa SW 1.6 km/h 3.2 km/h 93 % 0.0 mm
02:45 10.6 °C 9.7 °C 1007.0 hPa Calm     94 % 0.0 mm
03:05 10.8 °C 9.9 °C 1008.0 hPa Calm     94 % 0.0 mm
03:15 11.0 °C 10.1 °C 1007.0 hPa Calm     94 % 0.0 mm
03:25 11.0 °C 10.1 °C 1007.0 hPa NW 1.6 km/h 3.2 km/h 94 % 0.0 mm
03:35 11.1 °C 10.2 °C 1007.0 hPa Calm   1.6 km/h 94 % 0.0 mm
03:45 11.3 °C 10.4 °C 1007.0 hPa Calm     94 % 0.0 mm
03:55 11.6 °C 10.8 °C 1007.0 hPa Calm     95 % 0.0 mm
04:05 11.7 °C 10.8 °C 1007.0 hPa Calm     94 % 0.0 mm
04:15 12.1 °C 11.2 °C 1007.0 hPa Calm     94 % 0.0 mm
04:25 12.6 °C 11.7 °C 1007.0 hPa Calm     94 % 0.0 mm
04:35 13.0 °C 12.1 °C 1007.0 hPa ESE 1.6 km/h 3.2 km/h 94 % 0.0 mm
04:45 13.1 °C 12.0 °C 1007.0 hPa SSW 1.6 km/h 3.2 km/h 93 % 1.0 mm
04:55 13.4 °C 12.3 °C 1007.0 hPa SW 3.2 km/h 6.4 km/h 93 % 1.0 mm
05:05 13.6 °C 12.5 °C 1007.0 hPa SW 1.6 km/h 4.8 km/h 93 % 0.0 mm
05:15 13.7 °C 12.6 °C 1007.0 hPa SW 4.8 km/h 4.8 km/h 93 % 0.0 mm
05:25 13.9 °C 12.6 °C 1007.0 hPa WSW 4.8 km/h 4.8 km/h 92 % 0.0 mm
05:35 14.2 °C 12.2 °C 1007.0 hPa WSW 4.8 km/h 8.0 km/h 88 % 0.0 mm
05:45 14.3 °C 11.4 °C 1007.0 hPa WSW 3.2 km/h 6.4 km/h 83 % 0.0 mm
05:55 14.5 °C 11.8 °C 1007.0 hPa West 1.6 km/h 4.8 km/h 84 % 0.0 mm
06:05 14.6 °C 11.7 °C 1007.0 hPa West 3.2 km/h 8.0 km/h 83 % 0.0 mm
06:10 14.6 °C 11.7 °C 1007.0 hPa WSW 4.8 km/h 6.4 km/h 83 % 0.0 mm
11:13 14.5 °C 11.3 °C 1007.0 hPa WSW 7.4 km/h 7.4 km/h 81 % 1.0 mm
11:18 14.5 °C 11.1 °C 1007.0 hPa SSW 7.4 km/h 7.4 km/h 80 % 1.0 mm
11:23 14.6 °C 11.2 °C 1007.0 hPa WSW 7.4 km/h 7.4 km/h 80 % 0.0 mm
11:28 14.6 °C 10.8 °C 1007.0 hPa SW 7.4 km/h 7.4 km/h 78 % 0.0 mm
11:33 14.6 °C 10.4 °C 1007.0 hPa NW 14.8 km/h 14.8 km/h 76 % 0.0 mm
11:38 14.5 °C 10.3 °C 1007.0 hPa WSW 10.0 km/h 10.0 km/h 76 % 0.0 mm
11:43 14.3 °C 10.3 °C 1007.0 hPa WSW 11.1 km/h 11.1 km/h 77 % 0.0 mm
11:48 14.3 °C 10.5 °C 1007.0 hPa South 7.4 km/h 7.4 km/h 78 % 0.0 mm
11:53 14.4 °C 10.8 °C 1007.0 hPa WSW 5.6 km/h 5.6 km/h 79 % 0.0 mm
11:58 14.9 °C 11.1 °C 1007.0 hPa SSE 3.7 km/h 3.7 km/h 78 % 0.0 mm
12:03 15.4 °C 11.6 °C 1007.0 hPa ESE 5.6 km/h 5.6 km/h 78 % 0.0 mm
12:08 15.9 °C 12.1 °C 1005.0 hPa East 5.6 km/h 5.6 km/h 78 % 0.0 mm
12:13 16.3 °C 12.3 °C 1005.0 hPa NNW 6.1 km/h 6.1 km/h 77 % 0.0 mm
12:18 16.4 °C 11.8 °C 1005.0 hPa ENE 11.1 km/h 11.1 km/h 74 % 0.0 mm
12:28 17.1 °C 12.2 °C 1006.0 hPa NNE 6.4 km/h 6.4 km/h 73 % 0.0 mm
12:33 17.1 °C 12.2 °C 1006.0 hPa ENE 5.0 km/h 5.0 km/h 73 % 0.0 mm
12:38 17.2 °C 12.1 °C 1006.0 hPa NNE 3.7 km/h 3.7 km/h 72 % 0.0 mm
12:48 17.9 °C 11.9 °C 1006.0 hPa WSW 5.6 km/h 5.6 km/h 68 % 0.0 mm
12:58 18.2 °C 11.3 °C 1006.0 hPa WSW 9.3 km/h 9.3 km/h 64 % 0.0 mm
13:03 18.7 °C 11.5 °C 1006.0 hPa WSW 11.1 km/h 11.1 km/h 63 % 0.0 mm
13:13 18.9 °C 11.2 °C 1006.0 hPa WNW 9.3 km/h 9.3 km/h 61 % 0.0 mm
13:18 19.0 °C 11.3 °C 1006.0 hPa NNW 9.3 km/h 9.3 km/h 61 % 0.0 mm
13:23 19.3 °C 11.3 °C 1006.0 hPa West 7.4 km/h 7.4 km/h 60 % 0.0 mm
13:28 19.2 °C 10.4 °C 1006.0 hPa WSW 13.0 km/h 13.0 km/h 57 % 0.0 mm
13:38 19.1 °C 10.7 °C 1006.0 hPa SW 9.5 km/h 9.5 km/h 58 % 0.0 mm
13:43 19.3 °C 10.3 °C 1006.0 hPa West 9.3 km/h 9.3 km/h 56 % 0.0 mm
13:48 19.4 °C 10.1 °C 1006.0 hPa SW 13.0 km/h 13.0 km/h 55 % 0.0 mm
13:53 19.4 °C 9.3 °C 1005.0 hPa SW 15.1 km/h 15.1 km/h 52 % 0.0 mm
13:58 19.7 °C 9.8 °C 1005.0 hPa WSW 7.4 km/h 7.4 km/h 53 % 0.0 mm
14:03 19.7 °C 9.6 °C 1005.0 hPa West 13.0 km/h 13.0 km/h 52 % 0.0 mm
14:08 19.7 °C 9.3 °C 1005.0 hPa WSW 11.1 km/h 11.1 km/h 51 % 0.0 mm
14:13 19.6 °C 9.4 °C 1005.0 hPa WSW 7.4 km/h 7.4 km/h 52 % 0.0 mm
14:18 20.3 °C 10.1 °C 1005.0 hPa SW 5.6 km/h 5.6 km/h 52 % 0.0 mm
14:23 20.4 °C 9.9 °C 1005.0 hPa WSW 9.3 km/h 9.3 km/h 51 % 0.0 mm
14:28 20.7 °C 10.2 °C 1005.0 hPa SSW 9.3 km/h 9.3 km/h 51 % 0.0 mm
14:33 20.9 °C 10.1 °C 1005.0 hPa SW 13.0 km/h 13.0 km/h 50 % 0.0 mm
14:38 20.9 °C 10.1 °C 1003.9 hPa West 14.8 km/h 14.8 km/h 50 % 0.0 mm
14:43 21.0 °C 10.2 °C 1003.9 hPa WSW 9.3 km/h 9.3 km/h 50 % 0.0 mm
14:48 21.2 °C 10.3 °C 1003.9 hPa WNW 9.5 km/h 9.5 km/h 50 % 0.0 mm
14:53 21.4 °C 10.2 °C 1003.9 hPa NNW 9.3 km/h 9.3 km/h 49 % 0.0 mm
14:58 21.8 °C 10.6 °C 1003.9 hPa West 9.0 km/h 9.0 km/h 49 % 0.0 mm
15:03 21.8 °C 10.3 °C 1003.9 hPa WSW 14.0 km/h 14.0 km/h 48 % 0.0 mm
15:08 21.8 °C 10.0 °C 1003.9 hPa South 11.1 km/h 11.1 km/h 47 % 0.0 mm
15:13 22.1 °C 10.3 °C 1003.9 hPa WSW 7.4 km/h 7.4 km/h 47 % 0.0 mm
15:18 22.3 °C 10.4 °C 1003.9 hPa WNW 11.1 km/h 11.1 km/h 47 % 0.0 mm
15:23 21.6 °C 9.5 °C 1003.9 hPa WSW 7.4 km/h 7.4 km/h 46 % 0.0 mm
15:28 21.3 °C 9.2 °C 1003.9 hPa WSW 7.4 km/h 7.4 km/h 46 % 0.0 mm
15:33 21.7 °C 9.6 °C 1003.9 hPa South 5.6 km/h 5.6 km/h 46 % 0.0 mm
15:38 22.0 °C 9.5 °C 1003.9 hPa WSW 9.3 km/h 9.3 km/h 45 % 0.0 mm
15:43 22.1 °C 9.9 °C 1003.9 hPa WNW 7.6 km/h 7.6 km/h 46 % 0.0 mm
15:48 22.1 °C 9.6 °C 1003.9 hPa WSW 7.4 km/h 7.4 km/h 45 % 0.0 mm
15:53 21.8 °C 9.0 °C 1003.9 hPa West 9.3 km/h 9.3 km/h 44 % 0.0 mm
15:58 22.0 °C 9.2 °C 1003.9 hPa WNW 11.1 km/h 11.1 km/h 44 % 0.0 mm
16:03 22.2 °C 9.4 °C 1003.9 hPa SW 11.1 km/h 11.1 km/h 44 % 0.0 mm
16:08 22.2 °C 9.4 °C 1003.9 hPa WSW 7.4 km/h 7.4 km/h 44 % 0.0 mm
16:13 22.4 °C 9.2 °C 1003.9 hPa WNW 9.3 km/h 9.3 km/h 43 % 0.0 mm
16:18 22.3 °C 9.4 °C 1003.9 hPa WSW 5.6 km/h 5.6 km/h 44 % 0.0 mm
16:23 22.6 °C 9.7 °C 1003.9 hPa WSW 5.6 km/h 5.6 km/h 44 % 0.0 mm
16:28 22.4 °C 9.2 °C 1003.9 hPa WSW 8.7 km/h 8.7 km/h 43 % 0.0 mm
16:38 22.0 °C 8.8 °C 1003.9 hPa NW 9.3 km/h 9.3 km/h 43 % 0.0 mm
16:43 22.3 °C 9.4 °C 1003.9 hPa West 7.4 km/h 7.4 km/h 44 % 0.0 mm
16:48 22.4 °C 8.8 °C 1003.9 hPa West 11.1 km/h 11.1 km/h 42 % 0.0 mm
16:53 22.6 °C 9.4 °C 1002.9 hPa SSW 5.6 km/h 5.6 km/h 43 % 0.0 mm
16:58 22.8 °C 9.6 °C 1002.9 hPa SW 13.0 km/h 13.0 km/h 43 % 0.0 mm
17:03 22.4 °C 9.6 °C 1002.9 hPa West 7.4 km/h 7.4 km/h 44 % 0.0 mm
17:08 22.4 °C 9.2 °C 1003.9 hPa SW 5.6 km/h 5.8 km/h 43 % 0.0 mm
17:13 22.7 °C 9.5 °C 1003.9 hPa SSW 7.4 km/h 7.4 km/h 43 % 0.0 mm
17:28 21.8 °C 7.9 °C 1002.9 hPa SW 13.0 km/h 13.0 km/h 41 % 0.0 mm
17:33 21.5 °C 9.1 °C 1002.9 hPa SW 14.8 km/h 14.8 km/h 45 % 0.0 mm
17:38 21.0 °C 9.3 °C 1003.9 hPa SSW 5.6 km/h 5.6 km/h 47 % 0.0 mm
17:43 20.7 °C 9.6 °C 1003.9 hPa West 11.1 km/h 11.1 km/h 49 % 0.0 mm
17:48 20.4 °C 9.3 °C 1003.9 hPa WSW 11.1 km/h 11.1 km/h 49 % 0.0 mm
17:53 20.0 °C 9.6 °C 1003.9 hPa South 13.0 km/h 13.0 km/h 51 % 0.0 mm
17:58 19.8 °C 10.2 °C 1003.9 hPa SSW 20.4 km/h 20.4 km/h 54 % 0.0 mm
18:03 19.4 °C 10.9 °C 1003.9 hPa SSW 13.0 km/h 13.0 km/h 58 % 0.0 mm
18:08 19.1 °C 11.2 °C 1003.9 hPa WSW 16.7 km/h 16.7 km/h 60 % 0.0 mm
18:13 18.7 °C 11.5 °C 1003.9 hPa SSW 16.9 km/h 16.9 km/h 63 % 0.0 mm
18:18 18.3 °C 11.1 °C 1003.9 hPa WSW 21.7 km/h 21.7 km/h 63 % 0.0 mm
18:23 18.2 °C 11.5 °C 1003.9 hPa SW 20.4 km/h 20.4 km/h 65 % 0.0 mm
18:28 18.4 °C 12.4 °C 1003.9 hPa SW 13.0 km/h 13.0 km/h 68 % 0.0 mm
18:38 18.4 °C 11.9 °C 1003.9 hPa SSW 9.3 km/h 9.3 km/h 66 % 0.0 mm
18:43 18.5 °C 11.6 °C 1003.9 hPa SW 18.5 km/h 18.5 km/h 64 % 0.0 mm
18:48 18.6 °C 11.7 °C 1003.9 hPa SSW 23.3 km/h 23.3 km/h 64 % 0.0 mm
18:53 18.5 °C 11.3 °C 1003.9 hPa SW 28.6 km/h 28.6 km/h 63 % 0.0 mm
18:58 17.8 °C 10.4 °C 1003.9 hPa SW 16.7 km/h 16.7 km/h 62 % 0.0 mm
19:03 17.7 °C 10.6 °C 1003.9 hPa WSW 20.4 km/h 20.4 km/h 63 % 0.0 mm
19:08 17.7 °C 10.3 °C 1003.9 hPa SW 20.4 km/h 20.4 km/h 62 % 0.0 mm
19:13 17.5 °C 10.1 °C 1003.9 hPa WSW 20.6 km/h 20.6 km/h 62 % 0.0 mm
19:18 17.1 °C 10.0 °C 1003.9 hPa WSW 18.5 km/h 18.5 km/h 63 % 0.0 mm
19:20 13.1 °C 8.8 °C 1006.0 hPa WSW 3.2 km/h 3.2 km/h 75 % 0.0 mm
19:23 17.0 °C 9.9 °C 1003.9 hPa SSW 18.5 km/h 18.5 km/h 63 % 0.0 mm
19:28 17.2 °C 10.1 °C 1003.9 hPa WSW 13.0 km/h 13.0 km/h 63 % 0.0 mm
19:30 13.1 °C 8.8 °C 1006.0 hPa WSW 3.2 km/h 3.2 km/h 75 % 0.0 mm
19:33 17.1 °C 9.8 °C 1003.9 hPa SW 22.5 km/h 22.5 km/h 62 % 0.0 mm
19:38 17.0 °C 9.7 °C 1003.9 hPa WSW 20.4 km/h 20.4 km/h 62 % 0.0 mm
19:40 12.9 °C 8.8 °C 1006.0 hPa WSW 1.6 km/h 3.2 km/h 76 % 0.0 mm
19:43 17.0 °C 9.7 °C 1003.9 hPa WSW 20.4 km/h 20.4 km/h 62 % 0.0 mm
19:48 17.0 °C 9.9 °C 1003.9 hPa SSW 20.4 km/h 20.4 km/h 63 % 0.0 mm
19:50 12.8 °C 8.9 °C 1006.0 hPa WSW 3.2 km/h 3.2 km/h 77 % 0.0 mm
19:53 17.0 °C 9.7 °C 1005.0 hPa WSW 17.2 km/h 17.2 km/h 62 % 0.0 mm
19:58 16.9 °C 9.8 °C 1005.0 hPa SW 11.1 km/h 11.1 km/h 63 % 0.0 mm
20:00 12.7 °C 8.9 °C 1006.0 hPa WSW 1.6 km/h 3.2 km/h 78 % 0.0 mm
20:03 16.8 °C 9.7 °C 1005.0 hPa SW 13.0 km/h 13.0 km/h 63 % 0.0 mm
20:08 16.7 °C 9.8 °C 1003.9 hPa SSW 12.2 km/h 12.2 km/h 64 % 0.0 mm
20:13 16.6 °C 9.5 °C 1003.9 hPa SSW 13.0 km/h 13.0 km/h 63 % 0.0 mm
20:18 16.5 °C 9.7 °C 1003.9 hPa SSW 9.7 km/h 10.3 km/h 64 % 0.0 mm
20:23 16.4 °C 9.6 °C 1005.0 hPa WSW 9.3 km/h 9.3 km/h 64 % 0.0 mm
20:28 16.3 °C 9.5 °C 1005.0 hPa SW 11.1 km/h 11.1 km/h 64 % 0.0 mm
20:30 12.8 °C 9.1 °C 1006.0 hPa WSW 1.6 km/h 1.6 km/h 78 % 0.0 mm
20:33 16.1 °C 9.5 °C 1005.0 hPa SW 9.3 km/h 9.3 km/h 65 % 0.0 mm
20:38 16.0 °C 9.4 °C 1005.0 hPa West 12.6 km/h 12.6 km/h 65 % 0.0 mm
20:40 12.6 °C 9.1 °C 1006.0 hPa WSW 4.8 km/h 6.4 km/h 79 % 0.0 mm
20:43 15.9 °C 9.6 °C 1005.0 hPa SW 11.1 km/h 11.1 km/h 66 % 0.0 mm
20:48 15.8 °C 9.2 °C 1005.0 hPa SSW 9.3 km/h 9.3 km/h 65 % 0.0 mm
20:50 12.5 °C 9.2 °C 1006.0 hPa Calm   4.8 km/h 80 % 0.0 mm
20:53 15.8 °C 9.2 °C 1005.0 hPa SW 11.1 km/h 11.1 km/h 65 % 0.0 mm
20:58 15.6 °C 9.1 °C 1005.0 hPa SW 11.1 km/h 11.1 km/h 65 % 0.0 mm
21:00 12.4 °C 9.1 °C 1006.0 hPa Calm     80 % 0.0 mm
21:03 15.5 °C 8.9 °C 1005.0 hPa SW 7.4 km/h 7.4 km/h 65 % 0.0 mm
21:08 15.3 °C 8.8 °C 1006.0 hPa WSW 5.8 km/h 5.8 km/h 65 % 0.0 mm
21:10 12.4 °C 8.8 °C 1006.0 hPa WSW 1.6 km/h 4.8 km/h 79 % 0.0 mm
21:13 15.2 °C 8.7 °C 1006.0 hPa WSW 9.3 km/h 9.3 km/h 65 % 0.0 mm
21:18 15.2 °C 8.4 °C 1006.0 hPa SW 7.4 km/h 7.4 km/h 64 % 0.0 mm
21:20 12.2 °C 8.8 °C 1006.0 hPa SW 3.2 km/h 3.2 km/h 80 % 0.0 mm
21:23 15.1 °C 8.6 °C 1006.0 hPa WSW 5.6 km/h 5.6 km/h 65 % 0.0 mm
21:29 15.0 °C 8.4 °C 1006.0 hPa WSW 3.7 km/h 3.7 km/h 65 % 0.0 mm
21:30 11.8 °C 8.4 °C 1005.0 hPa Calm   4.8 km/h 80 % 0.0 mm
21:34 15.0 °C 8.4 °C 1006.0 hPa WSW 3.7 km/h 3.7 km/h 65 % 0.0 mm
21:39 15.0 °C 8.4 °C 1006.0 hPa WSW 3.7 km/h 3.7 km/h 65 % 0.0 mm
21:40 11.5 °C 8.2 °C 1006.0 hPa Calm   3.2 km/h 80 % 0.0 mm
21:49 14.9 °C 8.4 °C 1006.0 hPa SW 3.7 km/h   65 % 0.0 mm
21:50 11.2 °C 7.9 °C 1006.0 hPa Calm     80 % 0.0 mm
21:54 14.7 °C 8.4 °C 1005.0 hPa SW 2.3 km/h   66 % 0.0 mm
21:59 14.4 °C 8.1 °C 1005.0 hPa SSW 3.9 km/h 3.9 km/h 66 % 0.0 mm
22:00 10.9 °C 7.6 °C 1006.0 hPa North 3.2 km/h 4.8 km/h 80 % 0.0 mm
22:04 14.3 °C 8.3 °C 1005.0 hPa WSW 3.7 km/h 3.7 km/h 67 % 0.0 mm
22:09 14.2 °C 8.2 °C 1006.0 hPa SW 3.7 km/h 3.9 km/h 67 % 0.0 mm
22:10 10.5 °C 7.2 °C 1005.0 hPa ENE 3.2 km/h 9.7 km/h 80 % 0.0 mm
22:14 14.1 °C 8.3 °C 1006.0 hPa WSW 4.2 km/h 4.2 km/h 68 % 0.0 mm
22:19 14.0 °C 8.2 °C 1006.0 hPa SW 5.6 km/h 5.6 km/h 68 % 0.0 mm
22:20 10.3 °C 7.2 °C 1005.0 hPa Calm   3.2 km/h 81 % 0.0 mm
22:24 14.1 °C 8.5 °C 1005.0 hPa SW 6.1 km/h 6.1 km/h 69 % 0.0 mm
22:29 14.1 °C 8.5 °C 1005.0 hPa SW 5.6 km/h 5.6 km/h 69 % 0.0 mm
22:30 10.2 °C 7.1 °C 1006.0 hPa Calm     81 % 0.0 mm
22:34 14.2 °C 8.6 °C 1005.0 hPa SW 7.4 km/h 7.4 km/h 69 % 0.0 mm
22:39 14.2 °C 8.6 °C 1006.0 hPa South 7.9 km/h 7.9 km/h 69 % 0.0 mm
22:40 10.2 °C 7.1 °C 1006.0 hPa Calm   1.6 km/h 81 % 0.0 mm
22:44 14.1 °C 8.3 °C 1006.0 hPa WSW 5.6 km/h 5.6 km/h 68 % 0.0 mm
22:49 14.0 °C 8.4 °C 1006.0 hPa SW 6.1 km/h 6.1 km/h 69 % 0.0 mm
22:50 10.2 °C 7.1 °C 1006.0 hPa Calm   1.6 km/h 81 % 0.0 mm
22:54 14.0 °C 8.4 °C 1005.0 hPa WSW 5.6 km/h 5.6 km/h 69 % 0.0 mm
22:59 14.0 °C 8.4 °C 1005.0 hPa WSW 5.6 km/h 5.6 km/h 69 % 0.0 mm
23:00 10.2 °C 7.1 °C 1006.0 hPa Calm   3.2 km/h 81 % 0.0 mm
23:04 13.9 °C 8.3 °C 1005.0 hPa SW 3.7 km/h 3.7 km/h 69 % 0.0 mm
23:09 13.8 °C 8.2 °C 1006.0 hPa SSW 4.7 km/h 4.7 km/h 69 % 0.0 mm
23:10 10.3 °C 7.2 °C 1005.0 hPa NE 1.6 km/h 4.8 km/h 81 % 0.0 mm
23:14 13.7 °C 8.3 °C 1006.0 hPa WNW 5.6 km/h 5.6 km/h 70 % 0.0 mm
23:19 13.7 °C 8.3 °C 1006.0 hPa WSW 3.7 km/h 3.7 km/h 70 % 0.0 mm
23:20 10.2 °C 7.1 °C 1005.0 hPa Calm   3.2 km/h 81 % 0.0 mm
23:24 13.7 °C 8.6 °C 1006.0 hPa WSW 3.7 km/h 3.7 km/h 71 % 0.0 mm
23:29 13.6 °C 8.4 °C 1006.0 hPa WSW 1.9 km/h   71 % 0.0 mm
23:30 10.2 °C 7.1 °C 1006.0 hPa NE 1.6 km/h 4.8 km/h 81 % 0.0 mm
23:34 13.6 °C 8.7 °C 1006.0 hPa West 3.7 km/h 3.7 km/h 72 % 0.0 mm
23:39 13.6 °C 8.7 °C 1006.0 hPa WSW 3.7 km/h 3.7 km/h 72 % 0.0 mm
23:40 10.2 °C 7.1 °C 1006.0 hPa NE 1.6 km/h 3.2 km/h 81 % 0.0 mm
23:44 13.5 °C 8.6 °C 1006.0 hPa SW 4.7 km/h 4.7 km/h 72 % 0.0 mm
23:49 13.5 °C 8.6 °C 1006.0 hPa WSW 4.2 km/h 4.2 km/h 72 % 0.0 mm
23:50 10.1 °C 6.8 °C 1006.0 hPa NE 1.6 km/h 3.2 km/h 80 % 0.0 mm
23:54 13.5 °C 8.8 °C 1006.0 hPa WSW 3.9 km/h 3.9 km/h 73 % 0.0 mm
23:59 13.5 °C 8.8 °C 1006.0 hPa WSW 3.7 km/h 3.7 km/h 73 % 0.0 mm
Meteo Sesrovires
Elogis d' Weather Underground - 3.75 mb

Guio original per  Jim McMurry - jmcmurry@mwt.net Adaptat per a la plantilla per  Wim van der Kuil - Leuven-Template.eu

Trobareu la nostra informacio del temps tambe a:

Weather Underground

AWEKAS